Terminal Aerodrome Forecast
Issued by NWS

Home | Current Version | Previous Version | Text Only | Print | Product List | Glossary On
Versions: 1 2 3 4 5 6 7 8 9 10 11 12 13 14 15 16 17 18 19
000
FTUS43 KFGF 291100
TAFDVL
TAF
KDVL 291121Z 2912/3012 34017G27KT P6SM BKN015
      TEMPO 2913/2916 BKN025
     FM291600 34017G27KT P6SM BKN025
     FM292100 34015KT P6SM BKN040
     FM300000 34007KT P6SM SCT250
      AMD LTD TO CLD VIS AND WIND=

USA.gov is the U.S. government's official web portal to all federal, state and local government web resources and services.